sensor_id;sensor_type;location;lat;lon;timestamp;P1;durP1;ratioP1;P2;durP2;ratioP2
57107;SDS011;42987;52.916;6.542;2023-04-19T00:01:55;12.25;;;11.05;;
57107;SDS011;42987;52.916;6.542;2023-04-19T00:04:22;12.43;;;10.90;;
57107;SDS011;42987;52.916;6.542;2023-04-19T00:06:47;12.60;;;10.82;;
57107;SDS011;42987;52.916;6.542;2023-04-19T00:09:13;13.50;;;12.18;;
57107;SDS011;42987;52.916;6.542;2023-04-19T00:11:39;12.68;;;11.32;;
57107;SDS011;42987;52.916;6.542;2023-04-19T00:14:08;12.80;;;11.50;;
57107;SDS011;42987;52.916;6.542;2023-04-19T00:16:34;13.55;;;11.65;;
57107;SDS011;42987;52.916;6.542;2023-04-19T00:18:59;12.82;;;11.15;;
57107;SDS011;42987;52.916;6.542;2023-04-19T00:21:25;15.05;;;11.25;;
57107;SDS011;42987;52.916;6.542;2023-04-19T00:23:52;12.32;;;11.13;;
57107;SDS011;42987;52.916;6.542;2023-04-19T00:26:18;13.45;;;12.05;;
57107;SDS011;42987;52.916;6.542;2023-04-19T00:28:44;12.93;;;11.50;;
57107;SDS011;42987;52.916;6.542;2023-04-19T00:31:10;12.57;;;10.80;;
57107;SDS011;42987;52.916;6.542;2023-04-19T00:33:35;12.93;;;11.63;;
57107;SDS011;42987;52.916;6.542;2023-04-19T00:36:01;12.55;;;11.25;;
57107;SDS011;42987;52.916;6.542;2023-04-19T00:38:27;12.00;;;10.80;;
57107;SDS011;42987;52.916;6.542;2023-04-19T00:40:56;12.40;;;10.98;;
57107;SDS011;42987;52.916;6.542;2023-04-19T00:43:23;14.25;;;10.38;;
57107;SDS011;42987;52.916;6.542;2023-04-19T00:45:49;12.77;;;11.48;;
57107;SDS011;42987;52.916;6.542;2023-04-19T00:48:15;12.23;;;11.02;;
57107;SDS011;42987;52.916;6.542;2023-04-19T00:50:42;14.05;;;10.75;;
57107;SDS011;42987;52.916;6.542;2023-04-19T00:53:09;13.63;;;10.65;;
57107;SDS011;42987;52.916;6.542;2023-04-19T00:55:35;13.23;;;10.77;;
57107;SDS011;42987;52.916;6.542;2023-04-19T00:58:04;12.27;;;10.98;;
57107;SDS011;42987;52.916;6.542;2023-04-19T01:00:30;12.27;;;10.10;;
57107;SDS011;42987;52.916;6.542;2023-04-19T01:02:56;12.32;;;10.52;;
57107;SDS011;42987;52.916;6.542;2023-04-19T01:05:22;12.30;;;11.10;;
57107;SDS011;42987;52.916;6.542;2023-04-19T01:07:51;13.68;;;11.32;;
57107;SDS011;42987;52.916;6.542;2023-04-19T01:10:17;13.05;;;11.75;;
57107;SDS011;42987;52.916;6.542;2023-04-19T01:12:42;14.38;;;12.90;;
57107;SDS011;42987;52.916;6.542;2023-04-19T01:15:08;13.63;;;11.80;;
57107;SDS011;42987;52.916;6.542;2023-04-19T01:17:34;13.93;;;12.43;;
57107;SDS011;42987;52.916;6.542;2023-04-19T01:20:01;13.38;;;11.98;;
57107;SDS011;42987;52.916;6.542;2023-04-19T01:22:32;13.35;;;11.95;;
57107;SDS011;42987;52.916;6.542;2023-04-19T01:24:58;13.80;;;12.23;;
57107;SDS011;42987;52.916;6.542;2023-04-19T01:27:24;15.52;;;12.27;;
57107;SDS011;42987;52.916;6.542;2023-04-19T01:29:50;13.23;;;10.98;;
57107;SDS011;42987;52.916;6.542;2023-04-19T01:32:16;13.45;;;11.60;;
57107;SDS011;42987;52.916;6.542;2023-04-19T01:34:42;14.18;;;10.70;;
57107;SDS011;42987;52.916;6.542;2023-04-19T01:37:08;11.45;;;10.07;;
57107;SDS011;42987;52.916;6.542;2023-04-19T01:39:33;13.18;;;11.07;;
57107;SDS011;42987;52.916;6.542;2023-04-19T01:41:59;12.05;;;10.82;;
57107;SDS011;42987;52.916;6.542;2023-04-19T01:44:30;13.30;;;10.90;;
57107;SDS011;42987;52.916;6.542;2023-04-19T01:46:55;12.13;;;10.85;;
57107;SDS011;42987;52.916;6.542;2023-04-19T01:49:24;13.00;;;11.63;;
57107;SDS011;42987;52.916;6.542;2023-04-19T01:51:50;12.40;;;10.38;;
57107;SDS011;42987;52.916;6.542;2023-04-19T01:54:16;12.68;;;10.45;;
57107;SDS011;42987;52.916;6.542;2023-04-19T01:56:41;13.43;;;11.05;;
57107;SDS011;42987;52.916;6.542;2023-04-19T01:59:07;13.10;;;11.73;;
57107;SDS011;42987;52.916;6.542;2023-04-19T02:01:33;12.32;;;11.02;;
57107;SDS011;42987;52.916;6.542;2023-04-19T02:03:59;13.55;;;11.45;;
57107;SDS011;42987;52.916;6.542;2023-04-19T02:06:26;12.90;;;11.40;;
57107;SDS011;42987;52.916;6.542;2023-04-19T02:08:52;13.63;;;11.48;;
57107;SDS011;42987;52.916;6.542;2023-04-19T02:11:18;14.43;;;12.98;;
57107;SDS011;42987;52.916;6.542;2023-04-19T02:13:43;14.20;;;12.70;;
57107;SDS011;42987;52.916;6.542;2023-04-19T02:16:09;15.45;;;13.48;;
57107;SDS011;42987;52.916;6.542;2023-04-19T02:18:35;15.68;;;13.98;;
57107;SDS011;42987;52.916;6.542;2023-04-19T02:21:02;16.30;;;13.57;;
57107;SDS011;42987;52.916;6.542;2023-04-19T02:23:29;16.17;;;13.88;;
57107;SDS011;42987;52.916;6.542;2023-04-19T02:25:55;16.60;;;14.30;;
57107;SDS011;42987;52.916;6.542;2023-04-19T02:28:20;15.55;;;13.95;;
57107;SDS011;42987;52.916;6.542;2023-04-19T02:30:46;16.77;;;15.07;;
57107;SDS011;42987;52.916;6.542;2023-04-19T02:33:13;16.77;;;14.98;;
57107;SDS011;42987;52.916;6.542;2023-04-19T02:35:39;17.33;;;15.43;;
57107;SDS011;42987;52.916;6.542;2023-04-19T02:38:05;17.40;;;15.60;;
57107;SDS011;42987;52.916;6.542;2023-04-19T02:40:30;17.08;;;15.27;;
57107;SDS011;42987;52.916;6.542;2023-04-19T02:42:56;18.80;;;15.32;;
57107;SDS011;42987;52.916;6.542;2023-04-19T02:45:22;17.00;;;15.02;;
57107;SDS011;42987;52.916;6.542;2023-04-19T02:47:48;16.63;;;14.88;;
57107;SDS011;42987;52.916;6.542;2023-04-19T02:50:16;17.23;;;15.43;;
57107;SDS011;42987;52.916;6.542;2023-04-19T02:52:41;17.25;;;15.40;;
57107;SDS011;42987;52.916;6.542;2023-04-19T02:55:07;16.75;;;14.48;;
57107;SDS011;42987;52.916;6.542;2023-04-19T02:57:36;17.27;;;15.43;;
57107;SDS011;42987;52.916;6.542;2023-04-19T03:00:02;17.88;;;14.88;;
57107;SDS011;42987;52.916;6.542;2023-04-19T03:02:29;17.60;;;15.77;;
57107;SDS011;42987;52.916;6.542;2023-04-19T03:04:55;16.48;;;14.77;;
57107;SDS011;42987;52.916;6.542;2023-04-19T03:07:21;16.92;;;15.13;;
57107;SDS011;42987;52.916;6.542;2023-04-19T03:09:47;18.15;;;15.40;;
57107;SDS011;42987;52.916;6.542;2023-04-19T03:12:13;15.52;;;13.93;;
57107;SDS011;42987;52.916;6.542;2023-04-19T03:14:39;18.80;;;14.68;;
57107;SDS011;42987;52.916;6.542;2023-04-19T03:17:05;17.02;;;14.90;;
57107;SDS011;42987;52.916;6.542;2023-04-19T03:19:30;17.10;;;15.07;;
57107;SDS011;42987;52.916;6.542;2023-04-19T03:21:56;16.52;;;14.80;;
57107;SDS011;42987;52.916;6.542;2023-04-19T03:24:28;16.30;;;14.55;;
57107;SDS011;42987;52.916;6.542;2023-04-19T03:26:55;16.15;;;14.45;;
57107;SDS011;42987;52.916;6.542;2023-04-19T03:29:21;16.08;;;14.40;;
57107;SDS011;42987;52.916;6.542;2023-04-19T03:31:47;14.73;;;13.18;;
57107;SDS011;42987;52.916;6.542;2023-04-19T03:34:13;14.80;;;13.27;;
57107;SDS011;42987;52.916;6.542;2023-04-19T03:36:39;15.40;;;12.75;;
57107;SDS011;42987;52.916;6.542;2023-04-19T03:39:05;15.35;;;13.15;;
57107;SDS011;42987;52.916;6.542;2023-04-19T03:41:31;14.77;;;13.15;;
57107;SDS011;42987;52.916;6.542;2023-04-19T03:43:57;15.05;;;13.25;;
57107;SDS011;42987;52.916;6.542;2023-04-19T03:46:24;14.00;;;12.48;;
57107;SDS011;42987;52.916;6.542;2023-04-19T03:48:50;14.25;;;12.75;;
57107;SDS011;42987;52.916;6.542;2023-04-19T03:51:16;14.30;;;11.98;;
57107;SDS011;42987;52.916;6.542;2023-04-19T03:53:42;13.27;;;11.68;;
57107;SDS011;42987;52.916;6.542;2023-04-19T03:56:08;16.63;;;12.23;;
57107;SDS011;42987;52.916;6.542;2023-04-19T03:58:33;15.00;;;12.23;;
57107;SDS011;42987;52.916;6.542;2023-04-19T04:00:59;14.80;;;11.07;;
57107;SDS011;42987;52.916;6.542;2023-04-19T04:03:25;13.75;;;12.25;;
57107;SDS011;42987;52.916;6.542;2023-04-19T04:05:51;14.13;;;12.23;;
57107;SDS011;42987;52.916;6.542;2023-04-19T04:08:17;12.88;;;11.20;;
57107;SDS011;42987;52.916;6.542;2023-04-19T04:10:43;13.15;;;11.82;;
57107;SDS011;42987;52.916;6.542;2023-04-19T04:13:08;13.80;;;11.70;;
57107;SDS011;42987;52.916;6.542;2023-04-19T04:15:34;12.93;;;11.50;;
57107;SDS011;42987;52.916;6.542;2023-04-19T04:18:00;12.32;;;11.02;;
57107;SDS011;42987;52.916;6.542;2023-04-19T04:20:26;13.35;;;11.13;;
57107;SDS011;42987;52.916;6.542;2023-04-19T04:22:52;13.77;;;10.88;;
57107;SDS011;42987;52.916;6.542;2023-04-19T04:25:17;13.25;;;11.63;;
57107;SDS011;42987;52.916;6.542;2023-04-19T04:27:44;13.02;;;10.93;;
57107;SDS011;42987;52.916;6.542;2023-04-19T04:30:09;12.07;;;10.52;;
57107;SDS011;42987;52.916;6.542;2023-04-19T04:32:36;15.25;;;10.82;;
57107;SDS011;42987;52.916;6.542;2023-04-19T04:35:05;11.85;;;10.20;;
57107;SDS011;42987;52.916;6.542;2023-04-19T04:37:31;13.52;;;11.13;;
57107;SDS011;42987;52.916;6.542;2023-04-19T04:39:58;14.95;;;11.32;;
57107;SDS011;42987;52.916;6.542;2023-04-19T04:42:25;13.68;;;11.10;;
57107;SDS011;42987;52.916;6.542;2023-04-19T04:44:52;14.30;;;11.57;;
57107;SDS011;42987;52.916;6.542;2023-04-19T04:47:22;13.52;;;11.02;;
57107;SDS011;42987;52.916;6.542;2023-04-19T04:49:51;12.33;;;11.03;;
57107;SDS011;42987;52.916;6.542;2023-04-19T04:52:17;13.55;;;10.27;;
57107;SDS011;42987;52.916;6.542;2023-04-19T04:54:43;12.85;;;11.27;;
57107;SDS011;42987;52.916;6.542;2023-04-19T04:57:11;12.23;;;10.90;;
57107;SDS011;42987;52.916;6.542;2023-04-19T04:59:37;14.07;;;10.88;;
57107;SDS011;42987;52.916;6.542;2023-04-19T05:02:03;12.88;;;11.02;;
57107;SDS011;42987;52.916;6.542;2023-04-19T05:04:29;12.77;;;11.00;;
57107;SDS011;42987;52.916;6.542;2023-04-19T05:06:54;14.35;;;10.38;;
57107;SDS011;42987;52.916;6.542;2023-04-19T05:09:20;12.32;;;9.82;;
57107;SDS011;42987;52.916;6.542;2023-04-19T05:11:49;11.70;;;9.98;;
57107;SDS011;42987;52.916;6.542;2023-04-19T05:14:15;14.20;;;10.35;;
57107;SDS011;42987;52.916;6.542;2023-04-19T05:16:41;12.98;;;10.18;;
57107;SDS011;42987;52.916;6.542;2023-04-19T05:19:06;10.95;;;8.82;;
57107;SDS011;42987;52.916;6.542;2023-04-19T05:21:32;12.93;;;9.57;;
57107;SDS011;42987;52.916;6.542;2023-04-19T05:23:59;12.43;;;9.90;;
57107;SDS011;42987;52.916;6.542;2023-04-19T05:26:24;11.88;;;9.32;;
57107;SDS011;42987;52.916;6.542;2023-04-19T05:28:50;11.27;;;8.82;;
57107;SDS011;42987;52.916;6.542;2023-04-19T05:31:16;17.10;;;10.00;;
57107;SDS011;42987;52.916;6.542;2023-04-19T05:33:42;13.15;;;8.75;;
57107;SDS011;42987;52.916;6.542;2023-04-19T05:36:08;9.82;;;8.75;;
57107;SDS011;42987;52.916;6.542;2023-04-19T05:38:33;10.98;;;8.70;;
57107;SDS011;42987;52.916;6.542;2023-04-19T05:41:00;12.45;;;8.95;;
57107;SDS011;42987;52.916;6.542;2023-04-19T05:43:26;10.95;;;8.35;;
57107;SDS011;42987;52.916;6.542;2023-04-19T05:45:52;11.23;;;8.63;;
57107;SDS011;42987;52.916;6.542;2023-04-19T05:48:18;11.48;;;8.50;;
57107;SDS011;42987;52.916;6.542;2023-04-19T05:50:43;9.60;;;8.02;;
57107;SDS011;42987;52.916;6.542;2023-04-19T05:53:09;10.50;;;7.57;;
57107;SDS011;42987;52.916;6.542;2023-04-19T05:55:35;10.60;;;8.07;;
57107;SDS011;42987;52.916;6.542;2023-04-19T05:58:01;9.05;;;7.47;;
57107;SDS011;42987;52.916;6.542;2023-04-19T06:00:27;8.60;;;7.05;;
57107;SDS011;42987;52.916;6.542;2023-04-19T06:02:53;8.73;;;7.13;;
57107;SDS011;42987;52.916;6.542;2023-04-19T06:05:19;10.68;;;6.93;;
57107;SDS011;42987;52.916;6.542;2023-04-19T06:07:45;9.13;;;6.70;;
57107;SDS011;42987;52.916;6.542;2023-04-19T06:10:10;8.88;;;6.93;;
57107;SDS011;42987;52.916;6.542;2023-04-19T06:12:37;9.23;;;6.03;;
57107;SDS011;42987;52.916;6.542;2023-04-19T06:15:06;8.07;;;6.20;;
57107;SDS011;42987;52.916;6.542;2023-04-19T06:17:32;10.52;;;6.32;;
57107;SDS011;42987;52.916;6.542;2023-04-19T06:19:58;8.25;;;6.45;;
57107;SDS011;42987;52.916;6.542;2023-04-19T06:22:24;8.73;;;6.43;;
57107;SDS011;42987;52.916;6.542;2023-04-19T06:24:52;8.35;;;6.25;;
57107;SDS011;42987;52.916;6.542;2023-04-19T06:27:18;7.72;;;5.75;;
57107;SDS011;42987;52.916;6.542;2023-04-19T06:29:44;9.20;;;5.80;;
57107;SDS011;42987;52.916;6.542;2023-04-19T06:32:10;8.23;;;5.70;;
57107;SDS011;42987;52.916;6.542;2023-04-19T06:34:36;7.55;;;5.30;;
57107;SDS011;42987;52.916;6.542;2023-04-19T06:37:01;7.50;;;5.80;;
57107;SDS011;42987;52.916;6.542;2023-04-19T06:39:27;7.70;;;5.00;;
57107;SDS011;42987;52.916;6.542;2023-04-19T06:41:53;8.15;;;5.60;;
57107;SDS011;42987;52.916;6.542;2023-04-19T06:44:19;7.30;;;5.13;;
57107;SDS011;42987;52.916;6.542;2023-04-19T06:46:45;8.95;;;5.32;;
57107;SDS011;42987;52.916;6.542;2023-04-19T06:49:11;7.63;;;5.43;;
57107;SDS011;42987;52.916;6.542;2023-04-19T06:51:37;7.93;;;5.53;;
57107;SDS011;42987;52.916;6.542;2023-04-19T06:54:03;7.45;;;5.15;;
57107;SDS011;42987;52.916;6.542;2023-04-19T06:56:43;7.63;;;4.80;;
57107;SDS011;42987;52.916;6.542;2023-04-19T06:59:13;8.90;;;4.63;;
57107;SDS011;42987;52.916;6.542;2023-04-19T07:01:42;6.28;;;4.40;;
57107;SDS011;42987;52.916;6.542;2023-04-19T07:04:08;6.03;;;4.55;;
57107;SDS011;42987;52.916;6.542;2023-04-19T07:06:34;6.85;;;4.45;;
57107;SDS011;42987;52.916;6.542;2023-04-19T07:09:01;7.40;;;4.30;;
57107;SDS011;42987;52.916;6.542;2023-04-19T07:11:28;7.07;;;3.80;;
57107;SDS011;42987;52.916;6.542;2023-04-19T07:13:54;5.28;;;3.55;;
57107;SDS011;42987;52.916;6.542;2023-04-19T07:16:20;6.32;;;3.55;;
57107;SDS011;42987;52.916;6.542;2023-04-19T07:18:46;5.93;;;3.60;;
57107;SDS011;42987;52.916;6.542;2023-04-19T07:21:11;5.47;;;3.33;;
57107;SDS011;42987;52.916;6.542;2023-04-19T07:23:38;5.30;;;3.42;;
57107;SDS011;42987;52.916;6.542;2023-04-19T07:26:04;5.88;;;3.63;;
57107;SDS011;42987;52.916;6.542;2023-04-19T07:28:31;6.43;;;3.35;;
57107;SDS011;42987;52.916;6.542;2023-04-19T07:30:57;7.47;;;3.90;;
57107;SDS011;42987;52.916;6.542;2023-04-19T07:33:24;5.63;;;3.65;;
57107;SDS011;42987;52.916;6.542;2023-04-19T07:35:50;5.93;;;3.38;;
57107;SDS011;42987;52.916;6.542;2023-04-19T07:38:16;6.13;;;3.03;;
57107;SDS011;42987;52.916;6.542;2023-04-19T07:40:43;6.95;;;3.33;;
57107;SDS011;42987;52.916;6.542;2023-04-19T07:43:09;4.25;;;3.03;;
57107;SDS011;42987;52.916;6.542;2023-04-19T07:45:35;4.88;;;3.13;;
57107;SDS011;42987;52.916;6.542;2023-04-19T07:48:01;6.53;;;3.20;;
57107;SDS011;42987;52.916;6.542;2023-04-19T07:50:27;5.15;;;3.00;;
57107;SDS011;42987;52.916;6.542;2023-04-19T07:52:52;5.40;;;3.03;;
57107;SDS011;42987;52.916;6.542;2023-04-19T07:55:21;6.05;;;2.95;;
57107;SDS011;42987;52.916;6.542;2023-04-19T07:57:48;4.70;;;3.17;;
57107;SDS011;42987;52.916;6.542;2023-04-19T08:00:14;3.72;;;2.63;;
57107;SDS011;42987;52.916;6.542;2023-04-19T08:02:41;4.40;;;2.92;;
57107;SDS011;42987;52.916;6.542;2023-04-19T08:05:11;3.73;;;2.57;;
57107;SDS011;42987;52.916;6.542;2023-04-19T08:07:37;4.90;;;2.83;;
57107;SDS011;42987;52.916;6.542;2023-04-19T08:10:06;5.97;;;2.90;;
57107;SDS011;42987;52.916;6.542;2023-04-19T08:12:33;7.65;;;3.30;;
57107;SDS011;42987;52.916;6.542;2023-04-19T08:14:59;4.78;;;3.13;;
57107;SDS011;42987;52.916;6.542;2023-04-19T08:17:25;5.63;;;3.45;;
57107;SDS011;42987;52.916;6.542;2023-04-19T08:19:51;7.40;;;3.33;;
57107;SDS011;42987;52.916;6.542;2023-04-19T08:22:18;7.55;;;3.63;;
57107;SDS011;42987;52.916;6.542;2023-04-19T08:24:44;7.22;;;3.63;;
57107;SDS011;42987;52.916;6.542;2023-04-19T08:27:10;6.43;;;3.47;;
57107;SDS011;42987;52.916;6.542;2023-04-19T08:29:36;6.55;;;3.55;;
57107;SDS011;42987;52.916;6.542;2023-04-19T08:32:08;6.25;;;3.15;;
57107;SDS011;42987;52.916;6.542;2023-04-19T08:34:35;4.60;;;3.35;;
57107;SDS011;42987;52.916;6.542;2023-04-19T08:37:02;6.50;;;3.72;;
57107;SDS011;42987;52.916;6.542;2023-04-19T08:39:31;5.97;;;3.78;;
57107;SDS011;42987;52.916;6.542;2023-04-19T08:42:07;4.53;;;3.47;;
57107;SDS011;42987;52.916;6.542;2023-04-19T08:44:34;4.60;;;3.17;;
57107;SDS011;42987;52.916;6.542;2023-04-19T08:47:04;6.03;;;3.30;;
57107;SDS011;42987;52.916;6.542;2023-04-19T08:49:33;5.25;;;3.17;;
57107;SDS011;42987;52.916;6.542;2023-04-19T08:52:02;6.53;;;3.50;;
57107;SDS011;42987;52.916;6.542;2023-04-19T08:54:30;5.07;;;2.80;;
57107;SDS011;42987;52.916;6.542;2023-04-19T08:56:59;6.32;;;2.97;;
57107;SDS011;42987;52.916;6.542;2023-04-19T08:59:26;11.45;;;3.03;;
57107;SDS011;42987;52.916;6.542;2023-04-19T09:01:55;5.28;;;2.85;;
57107;SDS011;42987;52.916;6.542;2023-04-19T09:04:24;6.78;;;3.17;;
57107;SDS011;42987;52.916;6.542;2023-04-19T09:06:50;4.85;;;2.78;;
57107;SDS011;42987;52.916;6.542;2023-04-19T09:09:20;5.07;;;2.65;;
57107;SDS011;42987;52.916;6.542;2023-04-19T09:11:48;4.30;;;2.50;;
57107;SDS011;42987;52.916;6.542;2023-04-19T09:14:17;5.88;;;2.70;;
57107;SDS011;42987;52.916;6.542;2023-04-19T09:16:45;6.20;;;2.33;;
57107;SDS011;42987;52.916;6.542;2023-04-19T09:19:11;4.82;;;2.33;;
57107;SDS011;42987;52.916;6.542;2023-04-19T09:21:37;4.80;;;2.22;;
57107;SDS011;42987;52.916;6.542;2023-04-19T09:24:04;4.32;;;2.40;;
57107;SDS011;42987;52.916;6.542;2023-04-19T09:26:31;3.88;;;2.28;;
57107;SDS011;42987;52.916;6.542;2023-04-19T09:28:57;4.95;;;2.75;;
57107;SDS011;42987;52.916;6.542;2023-04-19T09:31:26;6.43;;;2.40;;
57107;SDS011;42987;52.916;6.542;2023-04-19T09:33:56;4.35;;;2.33;;
57107;SDS011;42987;52.916;6.542;2023-04-19T09:36:26;5.28;;;2.50;;
57107;SDS011;42987;52.916;6.542;2023-04-19T09:38:56;4.20;;;2.20;;
57107;SDS011;42987;52.916;6.542;2023-04-19T09:41:26;3.60;;;2.35;;
57107;SDS011;42987;52.916;6.542;2023-04-19T09:43:52;4.55;;;2.88;;
57107;SDS011;42987;52.916;6.542;2023-04-19T09:46:30;5.70;;;2.25;;
57107;SDS011;42987;52.916;6.542;2023-04-19T09:51:42;5.55;;;2.45;;
57107;SDS011;42987;52.916;6.542;2023-04-19T09:54:09;5.68;;;2.40;;
57107;SDS011;42987;52.916;6.542;2023-04-19T09:56:36;3.28;;;2.17;;
57107;SDS011;42987;52.916;6.542;2023-04-19T09:59:06;5.18;;;2.35;;
57107;SDS011;42987;52.916;6.542;2023-04-19T10:01:33;3.72;;;2.20;;
57107;SDS011;42987;52.916;6.542;2023-04-19T10:04:04;7.03;;;2.38;;
57107;SDS011;42987;52.916;6.542;2023-04-19T10:06:30;5.55;;;2.35;;
57107;SDS011;42987;52.916;6.542;2023-04-19T10:08:57;3.78;;;2.33;;
57107;SDS011;42987;52.916;6.542;2023-04-19T10:11:33;4.07;;;1.90;;
57107;SDS011;42987;52.916;6.542;2023-04-19T10:14:06;3.42;;;2.05;;
57107;SDS011;42987;52.916;6.542;2023-04-19T10:16:35;3.70;;;2.03;;
57107;SDS011;42987;52.916;6.542;2023-04-19T10:19:02;4.50;;;2.05;;
57107;SDS011;42987;52.916;6.542;2023-04-19T10:21:36;4.45;;;1.95;;
57107;SDS011;42987;52.916;6.542;2023-04-19T10:24:03;6.07;;;1.98;;
57107;SDS011;42987;52.916;6.542;2023-04-19T10:26:29;3.35;;;1.90;;
57107;SDS011;42987;52.916;6.542;2023-04-19T10:29:15;3.38;;;1.63;;
57107;SDS011;42987;52.916;6.542;2023-04-19T10:32:23;3.33;;;1.70;;
57107;SDS011;42987;52.916;6.542;2023-04-19T10:34:51;7.63;;;2.30;;
57107;SDS011;42987;52.916;6.542;2023-04-19T10:37:26;4.68;;;1.95;;
57107;SDS011;42987;52.916;6.542;2023-04-19T10:39:52;3.38;;;1.90;;
57107;SDS011;42987;52.916;6.542;2023-04-19T10:42:17;5.88;;;1.90;;
57107;SDS011;42987;52.916;6.542;2023-04-19T10:47:47;4.70;;;1.98;;
57107;SDS011;42987;52.916;6.542;2023-04-19T10:50:16;7.38;;;2.70;;
57107;SDS011;42987;52.916;6.542;2023-04-19T10:52:42;3.90;;;1.95;;
57107;SDS011;42987;52.916;6.542;2023-04-19T10:55:08;3.00;;;1.70;;
57107;SDS011;42987;52.916;6.542;2023-04-19T11:00:30;3.17;;;1.75;;
57107;SDS011;42987;52.916;6.542;2023-04-19T11:03:50;4.13;;;1.60;;
57107;SDS011;42987;52.916;6.542;2023-04-19T11:06:15;3.55;;;1.60;;
57107;SDS011;42987;52.916;6.542;2023-04-19T11:08:44;4.55;;;1.73;;
57107;SDS011;42987;52.916;6.542;2023-04-19T11:11:11;4.78;;;1.88;;
57107;SDS011;42987;52.916;6.542;2023-04-19T11:13:40;3.22;;;1.70;;
57107;SDS011;42987;52.916;6.542;2023-04-19T11:16:07;2.88;;;1.48;;
57107;SDS011;42987;52.916;6.542;2023-04-19T11:18:33;5.10;;;1.90;;
57107;SDS011;42987;52.916;6.542;2023-04-19T11:20:59;3.90;;;1.73;;
57107;SDS011;42987;52.916;6.542;2023-04-19T11:23:25;3.75;;;1.63;;
57107;SDS011;42987;52.916;6.542;2023-04-19T11:25:52;4.05;;;1.65;;
57107;SDS011;42987;52.916;6.542;2023-04-19T11:28:17;17.73;;;2.30;;
57107;SDS011;42987;52.916;6.542;2023-04-19T11:30:45;3.25;;;1.77;;
57107;SDS011;42987;52.916;6.542;2023-04-19T11:33:12;3.13;;;1.70;;
57107;SDS011;42987;52.916;6.542;2023-04-19T11:35:38;4.57;;;1.80;;
57107;SDS011;42987;52.916;6.542;2023-04-19T11:38:05;3.20;;;1.60;;
57107;SDS011;42987;52.916;6.542;2023-04-19T11:40:31;4.70;;;1.98;;
57107;SDS011;42987;52.916;6.542;2023-04-19T11:42:58;8.20;;;2.13;;
57107;SDS011;42987;52.916;6.542;2023-04-19T11:45:35;4.20;;;1.98;;
57107;SDS011;42987;52.916;6.542;2023-04-19T11:48:05;5.38;;;2.15;;
57107;SDS011;42987;52.916;6.542;2023-04-19T11:50:43;3.50;;;1.88;;
57107;SDS011;42987;52.916;6.542;2023-04-19T11:55:46;4.47;;;2.28;;
57107;SDS011;42987;52.916;6.542;2023-04-19T12:01:01;2.88;;;1.90;;
57107;SDS011;42987;52.916;6.542;2023-04-19T12:03:31;3.63;;;2.55;;
57107;SDS011;42987;52.916;6.542;2023-04-19T12:05:58;4.05;;;2.53;;
57107;SDS011;42987;52.916;6.542;2023-04-19T12:08:34;3.95;;;2.30;;
57107;SDS011;42987;52.916;6.542;2023-04-19T12:11:01;4.80;;;2.67;;
57107;SDS011;42987;52.916;6.542;2023-04-19T12:13:28;6.13;;;3.00;;
57107;SDS011;42987;52.916;6.542;2023-04-19T12:15:57;7.13;;;3.53;;
57107;SDS011;42987;52.916;6.542;2023-04-19T12:18:23;4.60;;;3.03;;
57107;SDS011;42987;52.916;6.542;2023-04-19T12:20:50;4.68;;;2.30;;
57107;SDS011;42987;52.916;6.542;2023-04-19T12:23:17;6.38;;;2.90;;
57107;SDS011;42987;52.916;6.542;2023-04-19T12:25:45;10.30;;;3.45;;
57107;SDS011;42987;52.916;6.542;2023-04-19T12:28:14;6.00;;;3.03;;
57107;SDS011;42987;52.916;6.542;2023-04-19T12:30:40;6.55;;;3.00;;
57107;SDS011;42987;52.916;6.542;2023-04-19T12:33:06;5.95;;;3.22;;
57107;SDS011;42987;52.916;6.542;2023-04-19T12:35:33;4.45;;;3.20;;
57107;SDS011;42987;52.916;6.542;2023-04-19T12:38:00;4.05;;;2.92;;
57107;SDS011;42987;52.916;6.542;2023-04-19T12:40:26;6.53;;;3.25;;
57107;SDS011;42987;52.916;6.542;2023-04-19T12:42:53;5.45;;;3.50;;
57107;SDS011;42987;52.916;6.542;2023-04-19T12:45:19;4.97;;;3.47;;
57107;SDS011;42987;52.916;6.542;2023-04-19T12:47:46;8.18;;;3.58;;
57107;SDS011;42987;52.916;6.542;2023-04-19T12:50:13;5.90;;;3.20;;
57107;SDS011;42987;52.916;6.542;2023-04-19T12:52:39;4.22;;;2.95;;
57107;SDS011;42987;52.916;6.542;2023-04-19T12:55:06;4.32;;;2.70;;
57107;SDS011;42987;52.916;6.542;2023-04-19T12:57:32;5.13;;;2.92;;
57107;SDS011;42987;52.916;6.542;2023-04-19T12:59:58;5.18;;;3.28;;
57107;SDS011;42987;52.916;6.542;2023-04-19T13:02:23;3.47;;;3.00;;
57107;SDS011;42987;52.916;6.542;2023-04-19T13:04:49;5.30;;;2.90;;
57107;SDS011;42987;52.916;6.542;2023-04-19T13:07:15;6.47;;;3.28;;
57107;SDS011;42987;52.916;6.542;2023-04-19T13:09:41;9.38;;;3.75;;
57107;SDS011;42987;52.916;6.542;2023-04-19T13:12:07;5.55;;;3.17;;
57107;SDS011;42987;52.916;6.542;2023-04-19T13:14:33;6.97;;;3.30;;
57107;SDS011;42987;52.916;6.542;2023-04-19T13:16:59;4.93;;;3.15;;
57107;SDS011;42987;52.916;6.542;2023-04-19T13:19:25;4.43;;;2.80;;
57107;SDS011;42987;52.916;6.542;2023-04-19T13:21:51;6.90;;;2.85;;
57107;SDS011;42987;52.916;6.542;2023-04-19T13:24:17;5.97;;;3.03;;
57107;SDS011;42987;52.916;6.542;2023-04-19T13:26:43;4.13;;;2.92;;
57107;SDS011;42987;52.916;6.542;2023-04-19T13:29:12;6.03;;;3.22;;
57107;SDS011;42987;52.916;6.542;2023-04-19T13:31:37;4.88;;;3.10;;
57107;SDS011;42987;52.916;6.542;2023-04-19T13:34:03;3.22;;;2.47;;
57107;SDS011;42987;52.916;6.542;2023-04-19T13:36:29;4.20;;;2.80;;
57107;SDS011;42987;52.916;6.542;2023-04-19T13:38:58;4.53;;;2.90;;
57107;SDS011;42987;52.916;6.542;2023-04-19T13:41:28;4.23;;;3.20;;
57107;SDS011;42987;52.916;6.542;2023-04-19T13:43:54;4.07;;;2.88;;
57107;SDS011;42987;52.916;6.542;2023-04-19T13:46:19;6.95;;;2.53;;
57107;SDS011;42987;52.916;6.542;2023-04-19T13:48:45;5.93;;;3.10;;
57107;SDS011;42987;52.916;6.542;2023-04-19T13:51:11;4.93;;;2.83;;
57107;SDS011;42987;52.916;6.542;2023-04-19T13:53:37;5.90;;;3.25;;
57107;SDS011;42987;52.916;6.542;2023-04-19T13:56:05;5.78;;;2.80;;
57107;SDS011;42987;52.916;6.542;2023-04-19T13:58:33;3.35;;;2.47;;
57107;SDS011;42987;52.916;6.542;2023-04-19T14:01:00;12.95;;;3.40;;
57107;SDS011;42987;52.916;6.542;2023-04-19T14:03:25;9.13;;;3.35;;
57107;SDS011;42987;52.916;6.542;2023-04-19T14:05:51;7.20;;;2.95;;
57107;SDS011;42987;52.916;6.542;2023-04-19T14:08:17;6.07;;;3.38;;
57107;SDS011;42987;52.916;6.542;2023-04-19T14:10:43;8.55;;;2.90;;
57107;SDS011;42987;52.916;6.542;2023-04-19T14:13:09;5.38;;;3.17;;
57107;SDS011;42987;52.916;6.542;2023-04-19T14:15:34;4.22;;;2.75;;
57107;SDS011;42987;52.916;6.542;2023-04-19T14:18:00;6.10;;;2.85;;
57107;SDS011;42987;52.916;6.542;2023-04-19T14:20:26;4.35;;;2.33;;
57107;SDS011;42987;52.916;6.542;2023-04-19T14:22:52;4.25;;;2.67;;
57107;SDS011;42987;52.916;6.542;2023-04-19T14:25:20;5.55;;;3.00;;
57107;SDS011;42987;52.916;6.542;2023-04-19T14:27:46;5.13;;;3.25;;
57107;SDS011;42987;52.916;6.542;2023-04-19T14:30:11;4.78;;;2.97;;
57107;SDS011;42987;52.916;6.542;2023-04-19T14:32:37;6.25;;;2.80;;
57107;SDS011;42987;52.916;6.542;2023-04-19T14:35:03;5.40;;;3.05;;
57107;SDS011;42987;52.916;6.542;2023-04-19T14:37:29;5.35;;;2.60;;
57107;SDS011;42987;52.916;6.542;2023-04-19T14:39:56;3.38;;;2.63;;
57107;SDS011;42987;52.916;6.542;2023-04-19T14:42:22;8.30;;;3.30;;
57107;SDS011;42987;52.916;6.542;2023-04-19T14:44:48;36.97;;;6.03;;
57107;SDS011;42987;52.916;6.542;2023-04-19T14:47:17;7.18;;;3.17;;
57107;SDS011;42987;52.916;6.542;2023-04-19T14:49:43;4.20;;;3.08;;
57107;SDS011;42987;52.916;6.542;2023-04-19T14:52:09;6.22;;;3.00;;